Time;durP1;ratioP1;P1;durP2;ratioP2;P2;SDS_P1;SDS_P2;PMS_P1;PMS_P2;Temp;Humidity;BMP_temperature;BMP_pressure;BME280_temperature;BME280_humidity;BME280_pressure;Samples;Min_cycle;Max_cycle;Signal;HPM_P1;HPM_P2
2023/12/13 00:00:58;;;;;;;0.50;0.50;;;;;;;9.65;100.00;94580.59;5008050;28;20206;-89
2023/12/13 00:03:35;;;;;;;;;;;;;;;;;;;;;
2023/12/13 00:06:07;;;;;;;0.50;0.50;;;;;;;9.58;100.00;94574.69;4993988;28;20237;-89
2023/12/13 00:08:35;;;;;;;0.60;0.60;;;;;;;9.59;100.00;94573.69;5007710;28;20210;-89
2023/12/13 00:11:05;;;;;;;0.60;0.60;;;;;;;9.56;100.00;94576.66;5009214;28;20659;-89
2023/12/13 00:13:35;;;;;;;0.60;0.60;;;;;;;9.63;100.00;94577.44;5008582;28;20645;-89
2023/12/13 00:18:47;;;;;;;0.77;0.60;;;;;;;9.70;100.00;94556.91;4983434;28;20214;-89
2023/12/13 00:21:15;;;;;;;0.43;0.43;;;;;;;9.69;100.00;94547.59;5008716;28;20206;-89
2023/12/13 00:23:42;;;;;;;0.40;0.40;;;;;;;9.66;100.00;94543.63;5008139;28;20206;-88
2023/12/13 00:26:13;;;;;;;0.50;0.50;;;;;;;9.66;100.00;94543.63;5008531;28;20293;-89
2023/12/13 00:28:40;;;;;;;0.50;0.50;;;;;;;9.62;100.00;94549.38;5008489;28;20205;-90
2023/12/13 00:31:19;;;;;;;0.50;0.50;;;;;;;9.66;100.00;94558.25;5008405;28;20461;-90
2023/12/13 00:33:49;;;;;;;1.03;0.53;;;;;;;9.64;100.00;94548.19;5007392;28;20206;-89
2023/12/13 00:36:16;;;;;;;1.70;0.60;;;;;;;9.61;100.00;94558.09;5008070;28;20258;-89
2023/12/13 00:38:42;;;;;;;0.60;0.60;;;;;;;9.60;100.00;94559.06;5024928;28;20259;-89
2023/12/13 00:41:09;;;;;;;0.50;0.50;;;;;;;9.52;100.00;94572.09;5028491;28;20209;-88
2023/12/13 00:43:37;;;;;;;0.50;0.50;;;;;;;9.56;100.00;94579.22;5028874;28;20210;-89
2023/12/13 00:46:22;;;;;;;0.60;0.60;;;;;;;9.56;100.00;94568.94;5028596;28;20222;-89
2023/12/13 00:48:50;;;;;;;0.40;0.40;;;;;;;9.56;100.00;94561.22;5021410;28;20201;-89
2023/12/13 00:51:17;;;;;;;0.60;0.47;;;;;;;9.58;100.00;94572.13;5007795;28;20218;-89
2023/12/13 00:53:44;;;;;;;0.50;0.50;;;;;;;9.54;100.00;94575.25;5008414;28;20206;-89
2023/12/13 00:56:10;;;;;;;0.40;0.40;;;;;;;9.55;100.00;94572.50;5008302;28;20246;-89
2023/12/13 00:58:37;;;;;;;1.50;0.40;;;;;;;9.58;100.00;94572.13;5016829;28;20403;-89
2023/12/13 01:01:20;;;;;;;0.43;0.43;;;;;;;9.59;100.00;94570.34;5022450;28;20217;-89
2023/12/13 01:03:47;;;;;;;0.60;0.60;;;;;;;9.56;100.00;94566.38;5029003;28;20210;-89
2023/12/13 01:06:15;;;;;;;0.40;0.40;;;;;;;9.58;100.00;94579.03;5018272;28;20254;-89
2023/12/13 01:08:41;;;;;;;0.47;0.47;;;;;;;9.53;100.00;94565.97;5009368;28;20199;-89
2023/12/13 01:11:08;;;;;;;0.50;0.50;;;;;;;9.54;100.00;94564.97;5009701;28;20577;-89
2023/12/13 01:13:35;;;;;;;0.73;0.50;;;;;;;9.54;100.00;94570.91;5008909;28;20206;-89
2023/12/13 01:16:16;;;;;;;0.50;0.50;;;;;;;9.53;100.00;94573.66;5008986;28;20269;-90
2023/12/13 01:19:24;;;;;;;0.50;0.50;;;;;;;9.55;100.00;94571.69;5009847;28;20341;-89
2023/12/13 01:21:52;;;;;;;0.40;0.40;;;;;;;9.54;100.00;94573.47;5011611;28;20202;-90
2023/12/13 01:24:19;;;;;;;0.43;0.43;;;;;;;9.53;100.00;94564.19;5012845;28;20203;-89
2023/12/13 01:26:45;;;;;;;1.13;0.40;;;;;;;9.43;100.00;94552.72;5012310;28;20225;-88
2023/12/13 01:29:18;;;;;;;0.57;0.40;;;;;;;9.47;100.00;94564.97;5011792;28;20209;-89
2023/12/13 01:31:44;;;;;;;0.40;0.40;;;;;;;9.51;100.00;94568.72;5011904;28;20203;-89
2023/12/13 01:34:10;;;;;;;0.40;0.40;;;;;;;9.49;100.00;94559.63;5011952;28;20198;-89
2023/12/13 01:36:41;;;;;;;0.57;0.40;;;;;;;9.49;100.00;94570.69;5011619;28;20311;-89
2023/12/13 01:39:09;;;;;;;0.40;0.40;;;;;;;9.45;100.00;94568.69;5004037;28;20357;-89
2023/12/13 01:41:37;;;;;;;0.40;0.40;;;;;;;9.37;100.00;94574.81;5011612;28;20218;-89
2023/12/13 01:44:04;;;;;;;0.40;0.40;;;;;;;9.45;100.00;94581.53;5011996;28;20214;-91
2023/12/13 01:46:35;;;;;;;0.40;0.40;;;;;;;9.51;100.00;94573.88;5011550;28;20715;-90
2023/12/13 01:49:05;;;;;;;0.40;0.40;;;;;;;9.48;100.00;94563.19;5014513;28;20294;-89
2023/12/13 01:51:33;;;;;;;0.40;0.40;;;;;;;9.53;100.00;94565.97;5031048;28;20723;-89
2023/12/13 01:54:02;;;;;;;0.50;0.50;;;;;;;9.54;100.00;94562.41;5025098;28;20210;-89
2023/12/13 01:56:31;;;;;;;0.50;0.50;;;;;;;9.55;100.00;94564.00;5014305;28;20231;-87
2023/12/13 01:58:57;;;;;;;0.50;0.50;;;;;;;9.49;100.00;94545.00;5011390;28;20211;-86
2023/12/13 02:01:24;;;;;;;0.40;0.40;;;;;;;9.51;100.00;94548.16;5011175;28;20205;-86
2023/12/13 02:03:59;;;;;;;0.40;0.40;;;;;;;9.54;100.00;94552.94;5011037;28;20210;-86
2023/12/13 02:06:25;;;;;;;0.40;0.40;;;;;;;9.61;100.00;94548.59;5010872;28;20234;-86
2023/12/13 02:08:52;;;;;;;0.40;0.40;;;;;;;9.52;100.00;94533.56;5011085;28;20199;-87
2023/12/13 02:11:18;;;;;;;0.40;0.40;;;;;;;9.54;100.00;94527.22;5009324;28;20207;-88
2023/12/13 02:13:47;;;;;;;0.40;0.40;;;;;;;9.55;100.00;94522.88;5010880;28;20214;-87
2023/12/13 02:16:13;;;;;;;0.50;0.50;;;;;;;9.50;100.00;94514.97;5015859;28;20223;-87
2023/12/13 02:18:40;;;;;;;0.53;0.53;;;;;;;9.50;100.00;94512.41;5010888;28;20209;-87
2023/12/13 02:21:07;;;;;;;0.40;0.40;;;;;;;9.45;100.00;94496.78;5010748;28;20213;-86
2023/12/13 02:23:45;;;;;;;;;;;;;;;;;;;;;
2023/12/13 02:26:13;;;;;;;0.43;0.43;;;;;;;9.54;100.00;94472.47;5007625;28;20878;-86
2023/12/13 02:28:41;;;;;;;0.63;0.40;;;;;;;9.54;100.00;94460.44;5006940;28;20210;-87
2023/12/13 02:31:09;;;;;;;0.93;0.53;;;;;;;9.60;100.00;94446.81;5009874;28;20206;-86
2023/12/13 02:33:39;;;;;;;0.87;0.50;;;;;;;9.53;100.00;94420.31;5010613;28;20233;-88
2023/12/13 02:36:06;;;;;;;0.80;0.43;;;;;;;9.46;100.00;94419.50;5010832;28;20218;-88
2023/12/13 02:38:43;;;;;;;0.50;0.50;;;;;;;9.45;100.00;94422.25;5025576;28;20850;-87
2023/12/13 02:41:11;;;;;;;0.57;0.57;;;;;;;9.48;100.00;94422.66;5030545;28;20202;-86
2023/12/13 02:43:37;;;;;;;0.80;0.57;;;;;;;9.47;100.00;94402.31;5014189;28;20771;-88
2023/12/13 02:46:04;;;;;;;1.40;0.47;;;;;;;9.51;100.00;94401.72;5010301;28;20602;-87
2023/12/13 02:48:31;;;;;;;0.40;0.40;;;;;;;9.50;100.00;94410.41;5010274;28;20201;-88
2023/12/13 02:50:57;;;;;;;2.20;0.77;;;;;;;9.47;100.00;94385.13;5021766;28;20205;-87
2023/12/13 02:53:24;;;;;;;1.00;0.50;;;;;;;9.50;100.00;94389.06;5021816;28;20209;-87
2023/12/13 02:55:50;;;;;;;1.33;0.50;;;;;;;9.51;100.00;94370.09;5029541;28;20639;-86
2023/12/13 02:58:19;;;;;;;0.40;0.40;;;;;;;9.51;100.00;94375.25;5024786;28;20556;-85
2023/12/13 03:00:52;;;;;;;0.83;0.50;;;;;;;9.44;100.00;94379.59;4990546;28;20210;-89
2023/12/13 03:03:19;;;;;;;0.40;0.40;;;;;;;9.42;100.00;94384.94;4991191;28;20211;-90
2023/12/13 03:05:45;;;;;;;0.53;0.53;;;;;;;9.43;100.00;94386.50;4990964;28;20238;-89
2023/12/13 03:08:15;;;;;;;1.23;0.60;;;;;;;9.37;100.00;94395.00;4996949;28;20198;-90
2023/12/13 03:10:42;;;;;;;0.73;0.60;;;;;;;9.29;100.00;94388.28;5009787;28;20198;-89
2023/12/13 03:13:08;;;;;;;0.80;0.60;;;;;;;9.27;100.00;94397.97;5009877;28;20203;-89
2023/12/13 03:15:36;;;;;;;0.67;0.67;;;;;;;9.32;100.00;94400.75;5007984;28;20746;-89
2023/12/13 03:18:03;;;;;;;1.00;0.43;;;;;;;9.31;100.00;94406.06;5009985;28;20285;-88
2023/12/13 03:20:38;;;;;;;0.50;0.50;;;;;;;9.25;100.00;94410.22;5009980;28;20203;-89
2023/12/13 03:23:07;;;;;;;0.50;0.50;;;;;;;9.34;100.00;94424.44;5009313;28;20587;-88
2023/12/13 03:25:33;;;;;;;1.63;0.50;;;;;;;9.37;100.00;94419.91;4994114;28;20210;-89
2023/12/13 03:28:00;;;;;;;0.93;0.50;;;;;;;9.29;100.00;94415.75;4990432;28;20200;-90
2023/12/13 03:30:26;;;;;;;0.70;0.50;;;;;;;9.33;100.00;94412.59;4990024;28;20605;-89
2023/12/13 03:32:54;;;;;;;1.50;0.50;;;;;;;9.33;100.00;94404.88;5007097;28;20202;-89
2023/12/13 03:35:21;;;;;;;0.77;0.70;;;;;;;9.28;100.00;94399.56;5010332;28;20207;-89
2023/12/13 03:37:47;;;;;;;1.63;0.50;;;;;;;9.30;100.00;94389.88;5018301;28;20229;-89
2023/12/13 03:40:14;;;;;;;0.70;0.70;;;;;;;9.31;100.00;94383.75;5029359;28;20602;-88
2023/12/13 03:42:44;;;;;;;0.90;0.63;;;;;;;9.26;100.00;94380.19;5029577;28;20222;-89
2023/12/13 03:45:10;;;;;;;1.40;0.80;;;;;;;9.26;100.00;94380.97;5029217;28;20573;-89
2023/12/13 03:47:37;;;;;;;0.93;0.60;;;;;;;9.26;100.00;94386.13;5009202;28;20221;-89
2023/12/13 03:50:05;;;;;;;0.60;0.50;;;;;;;9.25;100.00;94381.16;5021331;28;20228;-89
2023/12/13 03:52:32;;;;;;;0.80;0.60;;;;;;;9.38;100.00;94398.38;5028723;28;20210;-90
2023/12/13 03:54:58;;;;;;;0.60;0.60;;;;;;;9.40;100.00;94396.41;5029342;28;20201;-89
2023/12/13 03:57:27;;;;;;;0.80;0.60;;;;;;;9.39;100.00;94390.47;5028693;28;20752;-89
2023/12/13 04:00:00;;;;;;;1.10;0.50;;;;;;;9.39;100.00;94387.91;5028749;28;20289;-90
2023/12/13 04:02:27;;;;;;;0.97;0.60;;;;;;;9.40;100.00;94386.91;5028666;28;20256;-89
2023/12/13 04:04:53;;;;;;;0.73;0.50;;;;;;;9.45;100.00;94387.09;5008475;28;20230;-89
2023/12/13 04:07:21;;;;;;;0.50;0.50;;;;;;;9.50;100.00;94378.78;5008377;28;20223;-89
2023/12/13 04:09:47;;;;;;;1.60;0.70;;;;;;;9.50;100.00;94368.53;5008643;28;20672;-89
2023/12/13 04:12:14;;;;;;;1.30;0.50;;;;;;;9.46;100.00;94368.13;5008948;28;20202;-89
2023/12/13 04:14:40;;;;;;;1.73;0.80;;;;;;;9.49;100.00;94365.16;5008776;28;20684;-88
2023/12/13 04:17:10;;;;;;;1.20;0.80;;;;;;;9.52;100.00;94361.41;5008875;28;20223;-88
2023/12/13 04:19:36;;;;;;;1.40;0.60;;;;;;;9.51;100.00;94368.31;5007187;28;20195;-87
2023/12/13 04:22:08;;;;;;;0.43;0.43;;;;;;;9.50;100.00;94371.88;5001647;28;20202;-87
2023/12/13 04:24:36;;;;;;;2.27;0.60;;;;;;;9.49;100.00;94375.44;5008041;28;20198;-87
2023/12/13 04:27:03;;;;;;;0.57;0.43;;;;;;;9.52;100.00;94369.91;5009015;28;20222;-86
2023/12/13 04:29:29;;;;;;;0.53;0.50;;;;;;;9.54;100.00;94364.56;5008763;28;20198;-86
2023/12/13 04:31:57;;;;;;;0.83;0.50;;;;;;;9.59;100.00;94365.56;5008785;28;20199;-88
2023/12/13 04:34:24;;;;;;;0.40;0.40;;;;;;;9.57;100.00;94359.81;5008707;28;20211;-84
2023/12/13 04:36:50;;;;;;;1.40;0.60;;;;;;;9.63;100.00;94348.72;5008501;28;20215;-86
2023/12/13 04:39:17;;;;;;;3.47;0.60;;;;;;;9.66;100.00;94353.47;5009206;28;20233;-87
2023/12/13 04:41:44;;;;;;;0.70;0.50;;;;;;;9.67;100.00;94349.13;5008614;28;20207;-87
2023/12/13 04:44:12;;;;;;;0.90;0.53;;;;;;;9.67;100.00;94347.34;5016641;28;20198;-87
2023/12/13 04:46:52;;;;;;;0.83;0.50;;;;;;;9.68;100.00;94346.34;5010408;28;20786;-87
2023/12/13 04:49:19;;;;;;;0.87;0.60;;;;;;;9.60;100.00;94341.44;5000046;28;20209;-86
2023/12/13 04:51:45;;;;;;;1.37;0.60;;;;;;;9.59;100.00;94347.56;5008331;28;20203;-86
2023/12/13 04:54:12;;;;;;;0.50;0.50;;;;;;;9.59;100.00;94344.22;5009168;28;20206;-86
2023/12/13 04:56:38;;;;;;;0.70;0.60;;;;;;;9.63;100.00;94358.22;5012117;28;20245;-86
2023/12/13 04:59:06;;;;;;;1.10;0.50;;;;;;;9.66;100.00;94362.97;5011761;28;20218;-87
2023/12/13 05:01:44;;;;;;;1.17;0.60;;;;;;;9.61;100.00;94361.00;5012970;28;20628;-89
2023/12/13 05:04:10;;;;;;;2.37;0.70;;;;;;;9.60;100.00;94364.56;4994421;28;20225;-86
2023/12/13 05:06:37;;;;;;;1.03;0.80;;;;;;;9.63;100.00;94371.06;4992905;28;20219;-86
2023/12/13 05:09:03;;;;;;;1.57;0.73;;;;;;;9.61;100.00;94367.94;5007724;28;20213;-86
2023/12/13 05:11:30;;;;;;;1.10;0.70;;;;;;;9.64;100.00;94363.16;5012134;28;20890;-86
2023/12/13 05:13:56;;;;;;;1.93;0.67;;;;;;;9.68;100.00;94369.47;5012607;28;20203;-86
2023/12/13 05:17:17;;;;;;;0.60;0.60;;;;;;;9.65;100.00;94361.38;5007746;28;20221;-87
2023/12/13 05:19:44;;;;;;;0.63;0.63;;;;;;;9.64;100.00;94360.59;4913069;29;20623;-87
2023/12/13 05:22:29;;;;;;;0.53;0.53;;;;;;;9.65;100.00;94358.81;4945042;28;20208;-86
2023/12/13 05:25:03;;;;;;;0.70;0.70;;;;;;;9.66;100.00;94352.69;4940887;29;20204;-87
2023/12/13 05:27:33;;;;;;;0.80;0.60;;;;;;;9.63;100.00;94347.94;4970592;28;20219;-87
2023/12/13 05:29:59;;;;;;;0.60;0.60;;;;;;;9.62;100.00;94347.16;4992327;28;20648;-89
2023/12/13 05:32:26;;;;;;;0.70;0.70;;;;;;;9.63;100.00;94346.16;5005138;28;20195;-89
2023/12/13 05:34:53;;;;;;;2.13;0.80;;;;;;;9.63;100.00;94353.06;4996002;28;20234;-89
2023/12/13 05:37:24;;;;;;;1.77;0.70;;;;;;;9.60;100.00;94353.50;4992085;28;20728;-89
2023/12/13 05:39:51;;;;;;;0.90;0.90;;;;;;;9.59;100.00;94347.56;5009635;28;20657;-89
2023/12/13 05:42:35;;;;;;;1.97;1.00;;;;;;;9.58;100.00;94345.19;5019678;28;20198;-89
2023/12/13 05:45:01;;;;;;;1.57;1.27;;;;;;;9.56;100.00;94347.97;4991780;28;20212;-90
2023/12/13 05:47:28;;;;;;;1.43;0.90;;;;;;;9.54;100.00;94341.44;4995226;28;20211;-89
2023/12/13 05:49:59;;;;;;;0.73;0.70;;;;;;;9.56;100.00;94335.13;5019092;28;20560;-89
2023/12/13 05:52:42;;;;;;;6.57;1.63;;;;;;;9.55;100.00;94345.59;5006853;28;20214;-90
2023/12/13 05:55:14;;;;;;;1.37;0.80;;;;;;;9.52;100.00;94340.84;5010848;28;20218;-89
2023/12/13 05:57:40;;;;;;;1.93;1.20;;;;;;;9.50;100.00;94335.91;5008043;28;20262;-90
2023/12/13 06:00:08;;;;;;;1.80;0.80;;;;;;;9.44;100.00;94334.13;4991895;28;20216;-89
2023/12/13 06:02:38;;;;;;;2.20;0.90;;;;;;;9.40;100.00;94340.69;4991572;28;20290;-89
2023/12/13 06:05:25;;;;;;;1.00;0.90;;;;;;;9.39;100.00;94344.25;4998633;28;20199;-88
2023/12/13 06:07:54;;;;;;;1.10;1.00;;;;;;;9.37;100.00;94355.69;5005660;28;20657;-89
2023/12/13 06:10:23;;;;;;;1.23;1.00;;;;;;;9.32;100.00;94344.25;4990703;28;20210;-90
2023/12/13 06:12:51;;;;;;;1.00;0.90;;;;;;;9.33;100.00;94337.31;4997901;28;20200;-90
2023/12/13 06:15:17;;;;;;;1.03;0.97;;;;;;;9.30;100.00;94353.13;5010569;28;20257;-89
2023/12/13 06:18:08;;;;;;;2.70;1.00;;;;;;;9.29;100.00;94354.13;5010519;28;20229;-89
2023/12/13 06:21:19;;;;;;;1.27;0.83;;;;;;;9.29;100.00;94360.03;5012721;28;20206;-89
2023/12/13 06:24:13;;;;;;;1.10;0.80;;;;;;;9.28;100.00;94360.22;4981506;28;20210;-90
2023/12/13 06:26:39;;;;;;;0.80;0.80;;;;;;;9.23;100.00;94357.50;4994928;28;20754;-89
2023/12/13 06:29:06;;;;;;;3.60;0.90;;;;;;;9.20;100.00;94348.41;5008644;28;20227;-88
2023/12/13 06:31:32;;;;;;;1.93;1.10;;;;;;;9.18;100.00;94344.44;5010341;28;20210;-89
2023/12/13 06:33:59;;;;;;;1.07;0.90;;;;;;;9.16;100.00;94339.50;5010348;28;20325;-90
2023/12/13 06:36:46;;;;;;;8.70;1.07;;;;;;;9.23;100.00;94326.69;5017582;28;20218;-90
2023/12/13 06:39:14;;;;;;;1.73;1.13;;;;;;;9.22;100.00;94335.38;5012533;28;20236;-90
2023/12/13 06:42:04;;;;;;;2.83;1.13;;;;;;;9.26;100.00;94321.91;5029234;28;20290;-90
2023/12/13 06:44:39;;;;;;;1.07;0.93;;;;;;;9.30;100.00;94310.25;5011937;28;20195;-90
2023/12/13 06:47:29;;;;;;;3.13;1.07;;;;;;;9.32;100.00;94300.56;5001191;28;20219;-89
2023/12/13 06:49:59;;;;;;;2.67;1.23;;;;;;;9.29;100.00;94300.97;4991610;28;20226;-89
2023/12/13 06:52:47;;;;;;;3.33;1.40;;;;;;;9.28;100.00;94288.31;5029381;28;20636;-89
2023/12/13 06:55:15;;;;;;;7.70;6.90;;;;;;;9.28;100.00;94278.84;5030250;28;20558;-84
2023/12/13 06:58:08;;;;;;;5.77;3.30;;;;;;;9.30;100.00;94345.41;5031170;28;20240;-89
2023/12/13 07:00:34;;;;;;;2.37;1.70;;;;;;;9.50;100.00;94454.09;5024402;28;20203;-86
2023/12/13 07:03:21;;;;;;;5.23;1.63;;;;;;;9.72;100.00;94479.59;5010518;28;20610;-88
2023/12/13 07:05:47;;;;;;;4.83;1.50;;;;;;;9.85;100.00;94470.09;5009782;28;20280;-87
2023/12/13 07:08:37;;;;;;;1.50;1.10;;;;;;;9.83;100.00;94346.13;5009669;28;20202;-90
2023/12/13 07:11:06;;;;;;;2.90;1.30;;;;;;;9.73;100.00;94270.44;5024845;28;20242;-88
2023/12/13 07:13:35;;;;;;;1.27;1.17;;;;;;;9.67;100.00;94248.91;5029614;28;20205;-89
2023/12/13 07:16:24;;;;;;;2.23;1.17;;;;;;;9.56;100.00;94227.22;5025526;28;20238;-89
2023/12/13 07:18:50;;;;;;;4.63;1.40;;;;;;;9.51;100.00;94233.94;5000191;28;20222;-90
2023/12/13 07:21:46;;;;;;;4.03;1.67;;;;;;;9.44;100.00;94230.59;5009602;28;20210;-90
2023/12/13 07:24:13;;;;;;;2.93;1.63;;;;;;;9.35;100.00;94222.34;4920672;28;20237;-90
2023/12/13 07:26:58;;;;;;;2.47;1.37;;;;;;;9.26;100.00;94218.41;5009660;28;20223;-87
2023/12/13 07:29:25;;;;;;;2.80;2.40;;;;;;;9.24;100.00;94223.72;5008256;28;20198;-88
2023/12/13 07:31:54;;;;;;;2.63;2.03;;;;;;;9.23;100.00;94223.97;5012663;28;20198;-88
2023/12/13 07:34:29;;;;;;;3.80;1.43;;;;;;;9.20;100.00;94219.22;5020725;28;20206;-87
2023/12/13 07:36:59;;;;;;;1.10;1.00;;;;;;;9.21;100.00;94229.28;5029939;28;20222;-84
2023/12/13 07:39:26;;;;;;;3.30;1.53;;;;;;;9.27;100.00;94340.69;5029355;28;20244;-85
2023/12/13 07:41:52;;;;;;;3.30;1.30;;;;;;;9.35;100.00;94327.66;5002305;28;20830;-87
2023/12/13 07:44:35;;;;;;;1.50;1.20;;;;;;;9.46;100.00;94316.75;4989608;28;20207;-87
2023/12/13 07:47:02;;;;;;;1.90;0.97;;;;;;;9.48;100.00;94234.34;4988090;28;20241;-87
2023/12/13 07:49:29;;;;;;;1.47;1.10;;;;;;;9.45;100.00;94197.00;5011295;28;20214;-87
2023/12/13 07:51:58;;;;;;;1.90;1.00;;;;;;;9.44;100.00;94197.19;5008623;28;20213;-88
2023/12/13 07:54:34;;;;;;;1.83;1.10;;;;;;;9.40;100.00;94193.47;5008847;28;20614;-90
2023/12/13 07:59:41;;;;;;;2.57;1.30;;;;;;;9.44;100.00;94203.13;1491340;26;20921;-90
2023/12/13 08:02:31;;;;;;;1.73;1.20;;;;;;;9.42;100.00;94194.06;5029615;28;20209;-91
2023/12/13 08:05:00;;;;;;;1.20;1.10;;;;;;;9.40;99.97;94196.06;5014672;28;20202;-90
2023/12/13 08:10:18;;;;;;;1.27;1.17;;;;;;;9.31;99.80;94192.91;5006721;28;20191;-90
2023/12/13 08:13:12;;;;;;;2.53;1.23;;;;;;;9.29;99.90;94189.75;5009823;28;20203;-90
2023/12/13 08:15:44;;;;;;;1.50;1.30;;;;;;;9.20;100.00;94186.63;4987331;28;20290;-89
2023/12/13 08:18:10;;;;;;;16.67;14.87;;;;;;;9.22;100.00;94194.13;4990244;28;20235;-90
2023/12/13 08:20:37;;;;;;;6.93;5.57;;;;;;;9.28;100.00;94206.16;5011888;28;20212;-90
2023/12/13 08:23:13;;;;;;;2.87;1.80;;;;;;;9.29;100.00;94190.53;5008020;28;20211;-87
2023/12/13 08:25:42;;;;;;;3.33;1.40;;;;;;;9.33;99.83;94190.94;5018125;28;20245;-90
2023/12/13 08:28:09;;;;;;;2.17;1.30;;;;;;;9.36;99.47;94195.66;5020108;28;20641;-90
2023/12/13 08:30:36;;;;;;;2.87;1.40;;;;;;;9.37;98.61;94188.75;5019340;28;20286;-90
2023/12/13 08:33:08;;;;;;;3.00;1.77;;;;;;;9.33;98.45;94186.59;5039162;28;20805;-90
2023/12/13 08:35:35;;;;;;;1.80;1.40;;;;;;;9.32;98.42;94179.88;5041322;28;20628;-90
2023/12/13 08:38:02;;;;;;;4.93;1.60;;;;;;;9.39;98.43;94177.28;5016828;28;20214;-91
2023/12/13 08:40:29;;;;;;;5.53;1.87;;;;;;;9.42;97.96;94166.59;5021026;28;20238;-90
2023/12/13 08:43:15;;;;;;;4.13;1.63;;;;;;;9.48;97.72;94157.28;5021561;28;20297;-90
2023/12/13 08:45:42;;;;;;;4.70;1.90;;;;;;;9.53;96.95;94145.41;5021394;28;20282;-90
2023/12/13 08:48:27;;;;;;;4.60;1.67;;;;;;;9.59;96.38;94125.81;5016475;28;20209;-89
2023/12/13 08:51:00;;;;;;;4.07;1.60;;;;;;;9.66;96.14;94123.97;5013593;28;20553;-90
2023/12/13 08:53:29;;;;;;;4.17;1.87;;;;;;;9.73;95.79;94117.03;5010238;28;20211;-90
2023/12/13 08:55:56;;;;;;;4.23;1.73;;;;;;;9.76;95.20;94113.25;5022865;23;20222;-89
2023/12/13 08:58:22;;;;;;;3.73;1.90;;;;;;;9.81;94.55;94103.94;5031121;28;20206;-90
2023/12/13 09:00:49;;;;;;;4.13;1.77;;;;;;;9.88;93.71;94094.38;5031721;28;20203;-90
2023/12/13 09:03:23;;;;;;;3.77;2.00;;;;;;;9.86;93.38;94078.38;5031874;28;20230;-90
2023/12/13 09:06:06;;;;;;;3.73;1.50;;;;;;;9.79;92.62;94064.81;5032013;28;20257;-90
2023/12/13 09:08:33;;;;;;;2.73;1.57;;;;;;;9.80;93.13;94073.31;5017498;28;20203;-91
2023/12/13 09:13:52;;;;;;;1.90;1.53;;;;;;;9.82;93.46;94082.34;5008635;28;20731;-88
2023/12/13 09:16:45;;;;;;;5.73;1.50;;;;;;;9.93;93.20;94075.78;5011664;28;20257;-90
2023/12/13 09:19:14;;;;;;;1.90;1.50;;;;;;;10.03;92.68;94061.44;4997279;28;20233;-90
2023/12/13 09:21:56;;;;;;;4.33;1.50;;;;;;;10.14;91.56;94051.47;5011503;28;20261;-89
2023/12/13 09:27:54;;;;;;;4.00;1.77;;;;;;;10.30;90.40;94028.59;5007595;28;20219;-90
2023/12/13 09:30:29;;;;;;;3.53;2.00;;;;;;;10.51;90.28;94031.75;4989828;28;20584;-91
2023/12/13 09:33:18;;;;;;;4.30;2.07;;;;;;;10.55;88.56;93999.47;5008672;28;20201;-89
2023/12/13 09:35:46;;;;;;;6.77;1.90;;;;;;;10.66;88.12;93996.16;5003366;28;20195;-89
2023/12/13 09:38:28;;;;;;;;;;;;;;;;;;;;;
2023/12/13 09:40:58;;;;;;;10.27;1.50;;;;;;;10.68;86.73;93965.84;5004794;28;20234;-87
2023/12/13 09:43:42;;;;;;;3.80;1.40;;;;;;;10.87;87.26;93984.63;5018604;28;20265;-85
2023/12/13 09:46:21;;;;;;;7.00;1.50;;;;;;;11.00;86.54;93963.84;5006047;28;20215;-86
2023/12/13 09:48:51;;;;;;;2.70;1.10;;;;;;;11.00;85.47;93943.25;4999201;28;20619;-85
2023/12/13 09:51:21;;;;;;;2.90;1.40;;;;;;;10.97;85.16;93941.91;5007035;28;20196;-86
2023/12/13 09:53:51;;;;;;;1.13;1.03;;;;;;;10.98;84.96;93938.31;4997858;28;20707;-86
2023/12/13 09:56:19;;;;;;;3.90;1.33;;;;;;;10.93;84.54;93927.91;4997017;28;20243;-86
2023/12/13 09:58:46;;;;;;;5.57;1.53;;;;;;;10.90;84.36;93927.56;5014399;28;20213;-87
2023/12/13 10:01:14;;;;;;;1.60;1.30;;;;;;;10.91;85.01;93949.72;5015634;28;20214;-86
2023/12/13 10:03:41;;;;;;;3.50;1.30;;;;;;;10.88;85.37;93947.59;5016524;28;20205;-87
2023/12/13 10:06:10;;;;;;;5.10;1.60;;;;;;;10.88;92.02;94086.59;5016473;28;20227;-85
2023/12/13 10:08:38;;;;;;;4.77;1.50;;;;;;;10.80;87.50;94000.16;5005356;28;20196;-87
2023/12/13 10:11:05;;;;;;;2.00;1.20;;;;;;;10.70;85.82;93956.91;5008712;28;20742;-83
2023/12/13 10:13:32;;;;;;;5.13;1.40;;;;;;;10.64;85.87;93956.97;5016671;28;20210;-83
2023/12/13 10:16:09;;;;;;;2.67;1.43;;;;;;;10.55;86.53;93973.72;5020698;28;20253;-83
2023/12/13 10:18:35;;;;;;;2.43;1.70;;;;;;;10.50;87.03;93982.09;5018307;28;20203;-84
2023/12/13 10:21:03;;;;;;;3.43;1.40;;;;;;;10.44;87.66;93998.38;5015460;28;20222;-83
2023/12/13 10:23:41;;;;;;;1.70;1.10;;;;;;;10.46;88.12;94003.31;5009294;28;20213;-88
2023/12/13 10:26:09;;;;;;;2.63;1.17;;;;;;;10.42;88.34;94008.09;5010752;28;20229;-88
2023/12/13 10:28:39;;;;;;;1.60;1.00;;;;;;;10.44;88.38;94003.53;4999618;28;20722;-87
2023/12/13 10:31:15;;;;;;;3.00;1.20;;;;;;;10.43;88.33;94001.16;5008655;28;20238;-89
2023/12/13 10:33:47;;;;;;;2.93;1.20;;;;;;;10.45;88.37;93996.59;5006530;28;20221;-89
2023/12/13 10:36:26;;;;;;;2.23;1.10;;;;;;;10.40;88.68;94002.38;5040840;23;20329;-90
2023/12/13 10:39:01;;;;;;;4.93;1.20;;;;;;;10.32;88.95;94003.47;5029750;28;20202;-89
2023/12/13 10:41:31;;;;;;;3.00;1.10;;;;;;;10.32;89.42;94015.53;5023350;28;20245;-91
2023/12/13 10:44:07;;;;;;;2.53;1.00;;;;;;;10.30;89.88;94022.66;5003769;28;20693;-89
2023/12/13 10:46:57;;;;;;;1.40;1.10;;;;;;;10.26;89.55;94018.94;5008660;28;20253;-90
2023/12/13 10:49:24;;;;;;;1.53;1.33;;;;;;;10.24;89.92;94020.94;4995938;28;20206;-90
2023/12/13 10:51:54;;;;;;;2.53;1.17;;;;;;;10.27;90.26;94021.31;5008518;28;20212;-90
2023/12/13 10:54:29;;;;;;;4.80;1.10;;;;;;;10.41;90.21;94021.16;5009329;28;20329;-91
2023/12/13 10:57:19;;;;;;;2.37;1.33;;;;;;;10.50;89.75;94015.53;5012605;28;20221;-90
2023/12/13 10:59:48;;;;;;;3.23;1.60;;;;;;;10.66;89.29;94009.81;5026567;28;20312;-90
2023/12/13 11:02:55;;;;;;;3.03;1.43;;;;;;;10.81;88.01;93977.75;5017193;28;20202;-91
2023/12/13 11:05:37;;;;;;;2.23;1.43;;;;;;;10.89;87.94;93974.91;4944417;28;20614;-89
2023/12/13 11:08:14;;;;;;;5.17;1.47;;;;;;;10.88;86.90;93955.31;5008422;28;20281;-89
2023/12/13 11:10:53;;;;;;;1.67;1.30;;;;;;;10.84;86.64;93949.81;5010110;28;20199;-88
2023/12/13 11:16:14;;;;;;;2.50;1.10;;;;;;;10.70;87.10;93946.63;5016199;28;20222;-88
2023/12/13 11:19:14;;;;;;;1.87;1.13;;;;;;;10.72;87.33;93951.56;5002095;28;20199;-89
2023/12/13 11:21:53;;;;;;;2.20;1.60;;;;;;;10.71;87.53;93953.34;4999083;28;20859;-89
2023/12/13 11:27:31;;;;;;;2.40;1.70;;;;;;;10.69;88.06;93977.72;5003148;28;20237;-90
2023/12/13 11:30:10;;;;;;;2.70;1.40;;;;;;;10.64;87.56;93965.50;5003371;28;20191;-89
2023/12/13 11:32:36;;;;;;;1.90;1.23;;;;;;;10.65;87.99;93968.84;5015571;28;20205;-89
2023/12/13 11:38:26;;;;;;;1.50;1.00;;;;;;;10.75;86.73;93943.41;4992519;28;20211;-89
2023/12/13 11:40:52;;;;;;;2.70;0.90;;;;;;;10.74;85.50;93898.06;5008982;28;20564;-90
2023/12/13 11:43:20;;;;;;;1.53;0.90;;;;;;;10.69;84.36;93883.28;5007052;28;20195;-88
2023/12/13 11:45:50;;;;;;;1.20;0.90;;;;;;;10.68;84.20;93888.63;4999660;28;20218;-89
2023/12/13 11:48:29;;;;;;;0.73;0.70;;;;;;;10.75;84.13;93883.41;5013147;28;21450;-90
2023/12/13 11:50:55;;;;;;;1.07;0.70;;;;;;;10.77;84.65;93897.63;5008029;28;20228;-90
2023/12/13 11:53:23;;;;;;;1.40;1.00;;;;;;;10.82;84.07;93878.94;5007578;28;20190;-90
2023/12/13 11:55:49;;;;;;;1.30;1.00;;;;;;;10.84;83.97;93884.66;5009748;28;20199;-88
2023/12/13 11:58:31;;;;;;;2.63;0.90;;;;;;;10.86;83.12;93867.19;5007736;28;20203;-89
2023/12/13 12:01:01;;;;;;;1.80;1.00;;;;;;;10.90;83.11;93858.81;5008474;28;20230;-89
2023/12/13 12:03:27;;;;;;;1.80;1.57;;;;;;;10.76;82.37;93838.66;5005047;28;20218;-89
2023/12/13 12:05:54;;;;;;;4.87;1.93;;;;;;;10.79;83.75;93877.59;5008704;28;20219;-89
2023/12/13 12:08:35;;;;;;;2.47;0.90;;;;;;;10.79;82.81;93849.28;5006893;28;20190;-88
2023/12/13 12:11:02;;;;;;;1.93;0.90;;;;;;;10.81;82.58;93846.47;5005480;28;20852;-89
2023/12/13 12:13:28;;;;;;;0.93;0.90;;;;;;;10.72;82.18;93835.72;5007538;28;20294;-88
2023/12/13 12:30:22;;;;;;;0.70;0.70;;;;;;;10.23;86.39;93924.22;4818090;29;20296;-88
2023/12/13 12:32:48;;;;;;;0.63;0.60;;;;;;;10.15;87.14;93929.63;4969094;28;20216;-89
2023/12/13 12:35:15;;;;;;;1.23;0.63;;;;;;;10.11;88.16;93956.75;5010717;28;20213;-89